sensor_id;sensor_type;location;lat;lon;timestamp;temperature;humidity
57030;DHT22;42920;45.306;20.448;2022-11-20T00:02:03;230.60;2252.80
57030;DHT22;42920;45.306;20.448;2022-11-20T00:04:28;230.70;2252.80
57030;DHT22;42920;45.306;20.448;2022-11-20T00:06:54;230.80;2252.80
57030;DHT22;42920;45.306;20.448;2022-11-20T00:09:19;230.70;2252.80
57030;DHT22;42920;45.306;20.448;2022-11-20T00:11:45;230.80;2252.80
57030;DHT22;42920;45.306;20.448;2022-11-20T00:14:11;230.80;2252.80
57030;DHT22;42920;45.306;20.448;2022-11-20T00:16:36;230.80;2252.80
57030;DHT22;42920;45.306;20.448;2022-11-20T00:19:02;230.80;2252.80
57030;DHT22;42920;45.306;20.448;2022-11-20T00:21:28;230.80;2252.80
57030;DHT22;42920;45.306;20.448;2022-11-20T00:23:54;230.80;2252.80
57030;DHT22;42920;45.306;20.448;2022-11-20T00:26:20;230.80;2252.80
57030;DHT22;42920;45.306;20.448;2022-11-20T00:28:50;230.70;2252.80
57030;DHT22;42920;45.306;20.448;2022-11-20T00:31:16;230.70;2252.80
57030;DHT22;42920;45.306;20.448;2022-11-20T00:33:42;230.70;2252.80
57030;DHT22;42920;45.306;20.448;2022-11-20T00:36:09;230.70;2252.80
57030;DHT22;42920;45.306;20.448;2022-11-20T00:38:35;230.80;2252.80
57030;DHT22;42920;45.306;20.448;2022-11-20T00:41:01;230.80;2252.80
57030;DHT22;42920;45.306;20.448;2022-11-20T00:43:27;230.80;2252.80
57030;DHT22;42920;45.306;20.448;2022-11-20T00:45:59;230.80;2252.80
57030;DHT22;42920;45.306;20.448;2022-11-20T00:48:25;230.90;2252.80
57030;DHT22;42920;45.306;20.448;2022-11-20T00:50:50;230.90;2252.80
57030;DHT22;42920;45.306;20.448;2022-11-20T00:53:16;230.90;2252.80
57030;DHT22;42920;45.306;20.448;2022-11-20T00:55:42;230.90;2252.80
57030;DHT22;42920;45.306;20.448;2022-11-20T00:58:07;230.90;2252.80
57030;DHT22;42920;45.306;20.448;2022-11-20T01:00:33;230.90;2252.80
57030;DHT22;42920;45.306;20.448;2022-11-20T01:02:59;230.80;2252.80
57030;DHT22;42920;45.306;20.448;2022-11-20T01:05:24;230.80;2252.80
57030;DHT22;42920;45.306;20.448;2022-11-20T01:07:50;230.80;2252.80
57030;DHT22;42920;45.306;20.448;2022-11-20T01:10:16;230.90;2252.80
57030;DHT22;42920;45.306;20.448;2022-11-20T01:12:42;230.80;2252.80
57030;DHT22;42920;45.306;20.448;2022-11-20T01:15:08;230.80;2252.80
57030;DHT22;42920;45.306;20.448;2022-11-20T01:17:33;230.80;2252.80
57030;DHT22;42920;45.306;20.448;2022-11-20T01:19:59;230.80;2252.80
57030;DHT22;42920;45.306;20.448;2022-11-20T01:22:24;230.70;2252.80
57030;DHT22;42920;45.306;20.448;2022-11-20T01:24:50;230.70;2252.80
57030;DHT22;42920;45.306;20.448;2022-11-20T01:27:15;230.70;2252.80
57030;DHT22;42920;45.306;20.448;2022-11-20T01:29:41;230.70;2252.80
57030;DHT22;42920;45.306;20.448;2022-11-20T01:32:07;230.70;2252.80
57030;DHT22;42920;45.306;20.448;2022-11-20T01:34:32;230.60;2252.80
57030;DHT22;42920;45.306;20.448;2022-11-20T01:36:58;230.60;2252.80
57030;DHT22;42920;45.306;20.448;2022-11-20T01:39:24;230.60;2252.80
57030;DHT22;42920;45.306;20.448;2022-11-20T01:41:50;230.60;2252.80
57030;DHT22;42920;45.306;20.448;2022-11-20T01:47:39;230.60;2252.80
57030;DHT22;42920;45.306;20.448;2022-11-20T01:50:04;230.60;2252.80
57030;DHT22;42920;45.306;20.448;2022-11-20T01:52:32;230.60;2252.80
57030;DHT22;42920;45.306;20.448;2022-11-20T01:55:00;230.60;2252.80
57030;DHT22;42920;45.306;20.448;2022-11-20T01:57:27;230.70;2252.80
57030;DHT22;42920;45.306;20.448;2022-11-20T01:59:59;230.60;2252.80
57030;DHT22;42920;45.306;20.448;2022-11-20T02:02:26;230.60;2252.80
57030;DHT22;42920;45.306;20.448;2022-11-20T02:04:51;230.70;2252.80
57030;DHT22;42920;45.306;20.448;2022-11-20T02:07:19;230.70;2252.80
57030;DHT22;42920;45.306;20.448;2022-11-20T02:09:45;230.60;2252.80
57030;DHT22;42920;45.306;20.448;2022-11-20T02:12:10;230.70;2252.80
57030;DHT22;42920;45.306;20.448;2022-11-20T02:14:56;230.70;2252.80
57030;DHT22;42920;45.306;20.448;2022-11-20T02:17:22;230.60;2252.80
57030;DHT22;42920;45.306;20.448;2022-11-20T02:19:48;230.60;2252.80
57030;DHT22;42920;45.306;20.448;2022-11-20T02:22:15;230.60;2252.80
57030;DHT22;42920;45.306;20.448;2022-11-20T02:24:44;230.60;2252.80
57030;DHT22;42920;45.306;20.448;2022-11-20T02:27:11;230.60;2252.80
57030;DHT22;42920;45.306;20.448;2022-11-20T02:29:42;230.60;2252.80
57030;DHT22;42920;45.306;20.448;2022-11-20T02:34:44;230.60;2252.80
57030;DHT22;42920;45.306;20.448;2022-11-20T02:37:10;230.70;2252.80
57030;DHT22;42920;45.306;20.448;2022-11-20T02:39:35;230.70;2252.80
57030;DHT22;42920;45.306;20.448;2022-11-20T02:42:01;230.60;2252.80
57030;DHT22;42920;45.306;20.448;2022-11-20T02:44:27;230.60;2252.80
57030;DHT22;42920;45.306;20.448;2022-11-20T02:46:53;230.60;2252.80
57030;DHT22;42920;45.306;20.448;2022-11-20T02:49:18;230.60;2252.80
57030;DHT22;42920;45.306;20.448;2022-11-20T02:51:44;230.50;2252.80
57030;DHT22;42920;45.306;20.448;2022-11-20T02:54:09;230.50;2252.80
57030;DHT22;42920;45.306;20.448;2022-11-20T02:56:37;230.50;2252.80
57030;DHT22;42920;45.306;20.448;2022-11-20T02:59:02;230.50;2252.80
57030;DHT22;42920;45.306;20.448;2022-11-20T03:01:28;230.60;2252.80
57030;DHT22;42920;45.306;20.448;2022-11-20T03:03:53;230.60;2252.80
57030;DHT22;42920;45.306;20.448;2022-11-20T03:06:20;230.60;2252.80
57030;DHT22;42920;45.306;20.448;2022-11-20T03:08:45;230.60;2252.80
57030;DHT22;42920;45.306;20.448;2022-11-20T03:11:11;230.60;2252.80
57030;DHT22;42920;45.306;20.448;2022-11-20T03:13:36;230.60;2252.80
57030;DHT22;42920;45.306;20.448;2022-11-20T03:16:09;230.60;2252.80
57030;DHT22;42920;45.306;20.448;2022-11-20T03:18:35;230.60;2252.80
57030;DHT22;42920;45.306;20.448;2022-11-20T03:21:01;230.60;2252.80
57030;DHT22;42920;45.306;20.448;2022-11-20T03:23:28;230.70;2252.80
57030;DHT22;42920;45.306;20.448;2022-11-20T03:25:55;230.70;2252.80
57030;DHT22;42920;45.306;20.448;2022-11-20T03:28:20;230.70;2252.80
57030;DHT22;42920;45.306;20.448;2022-11-20T03:30:46;230.70;2252.80
57030;DHT22;42920;45.306;20.448;2022-11-20T03:33:11;230.80;2252.80
57030;DHT22;42920;45.306;20.448;2022-11-20T03:35:37;230.80;2252.80
57030;DHT22;42920;45.306;20.448;2022-11-20T03:38:03;230.80;2252.80
57030;DHT22;42920;45.306;20.448;2022-11-20T03:40:28;230.80;2252.80
57030;DHT22;42920;45.306;20.448;2022-11-20T03:42:54;230.70;2201.60
57030;DHT22;42920;45.306;20.448;2022-11-20T03:45:19;230.70;2252.80
57030;DHT22;42920;45.306;20.448;2022-11-20T03:47:45;230.80;2252.80
57030;DHT22;42920;45.306;20.448;2022-11-20T03:50:12;230.80;2252.80
57030;DHT22;42920;45.306;20.448;2022-11-20T03:52:39;230.80;2048.00
57030;DHT22;42920;45.306;20.448;2022-11-20T03:55:05;230.80;2176.00
57030;DHT22;42920;45.306;20.448;2022-11-20T03:57:31;230.80;1971.20
57030;DHT22;42920;45.306;20.448;2022-11-20T03:59:56;230.80;2022.40
57030;DHT22;42920;45.306;20.448;2022-11-20T04:02:22;230.80;1920.00
57030;DHT22;42920;45.306;20.448;2022-11-20T04:04:47;230.80;1894.40
57030;DHT22;42920;45.306;20.448;2022-11-20T04:07:13;230.70;2073.60
57030;DHT22;42920;45.306;20.448;2022-11-20T04:09:38;230.80;2073.60
57030;DHT22;42920;45.306;20.448;2022-11-20T04:12:04;230.70;2150.40
57030;DHT22;42920;45.306;20.448;2022-11-20T04:14:30;230.80;2252.80
57030;DHT22;42920;45.306;20.448;2022-11-20T04:16:55;230.70;2252.80
57030;DHT22;42920;45.306;20.448;2022-11-20T04:19:21;230.70;2252.80
57030;DHT22;42920;45.306;20.448;2022-11-20T04:21:47;230.70;2252.80
57030;DHT22;42920;45.306;20.448;2022-11-20T04:24:12;230.70;2252.80
57030;DHT22;42920;45.306;20.448;2022-11-20T04:26:38;230.60;2252.80
57030;DHT22;42920;45.306;20.448;2022-11-20T04:29:05;230.70;2252.80
57030;DHT22;42920;45.306;20.448;2022-11-20T04:31:32;230.60;2252.80
57030;DHT22;42920;45.306;20.448;2022-11-20T04:34:02;230.60;2252.80
57030;DHT22;42920;45.306;20.448;2022-11-20T04:36:29;230.60;2252.80
57030;DHT22;42920;45.306;20.448;2022-11-20T04:38:55;230.70;2252.80
57030;DHT22;42920;45.306;20.448;2022-11-20T04:41:21;230.60;2252.80
57030;DHT22;42920;45.306;20.448;2022-11-20T04:43:53;230.60;2252.80
57030;DHT22;42920;45.306;20.448;2022-11-20T04:46:19;230.60;2252.80
57030;DHT22;42920;45.306;20.448;2022-11-20T04:48:45;230.70;2252.80
57030;DHT22;42920;45.306;20.448;2022-11-20T04:51:11;230.70;2252.80
57030;DHT22;42920;45.306;20.448;2022-11-20T04:53:37;230.70;2252.80
57030;DHT22;42920;45.306;20.448;2022-11-20T04:56:04;230.90;2252.80
57030;DHT22;42920;45.306;20.448;2022-11-20T04:58:30;230.60;2252.80
57030;DHT22;42920;45.306;20.448;2022-11-20T05:03:34;230.70;2252.80
57030;DHT22;42920;45.306;20.448;2022-11-20T05:06:00;230.70;2252.80
57030;DHT22;42920;45.306;20.448;2022-11-20T05:08:26;230.70;2252.80
57030;DHT22;42920;45.306;20.448;2022-11-20T05:10:52;230.60;2252.80
57030;DHT22;42920;45.306;20.448;2022-11-20T05:13:17;230.60;2252.80
57030;DHT22;42920;45.306;20.448;2022-11-20T05:15:43;230.60;2252.80
57030;DHT22;42920;45.306;20.448;2022-11-20T05:18:08;230.60;2252.80
57030;DHT22;42920;45.306;20.448;2022-11-20T05:20:34;230.60;2252.80
57030;DHT22;42920;45.306;20.448;2022-11-20T05:23:01;230.50;2252.80
57030;DHT22;42920;45.306;20.448;2022-11-20T05:25:27;230.60;2252.80
57030;DHT22;42920;45.306;20.448;2022-11-20T05:27:53;230.50;2252.80
57030;DHT22;42920;45.306;20.448;2022-11-20T05:30:18;230.60;2252.80
57030;DHT22;42920;45.306;20.448;2022-11-20T05:32:44;230.50;2252.80
57030;DHT22;42920;45.306;20.448;2022-11-20T05:35:09;230.40;2201.60
57030;DHT22;42920;45.306;20.448;2022-11-20T05:37:35;230.40;2048.00
57030;DHT22;42920;45.306;20.448;2022-11-20T05:40:00;205.70;2252.80
57030;DHT22;42920;45.306;20.448;2022-11-20T05:42:26;205.70;2252.80
57030;DHT22;42920;45.306;20.448;2022-11-20T05:44:58;205.70;2252.80
57030;DHT22;42920;45.306;20.448;2022-11-20T05:47:24;205.70;2252.80
57030;DHT22;42920;45.306;20.448;2022-11-20T05:49:50;205.60;2252.80
57030;DHT22;42920;45.306;20.448;2022-11-20T05:52:15;205.50;2252.80
57030;DHT22;42920;45.306;20.448;2022-11-20T05:54:41;205.50;2252.80
57030;DHT22;42920;45.306;20.448;2022-11-20T05:57:06;205.50;2252.80
57030;DHT22;42920;45.306;20.448;2022-11-20T05:59:32;205.50;2252.80
57030;DHT22;42920;45.306;20.448;2022-11-20T06:01:58;205.50;2252.80
57030;DHT22;42920;45.306;20.448;2022-11-20T06:04:23;205.40;2252.80
57030;DHT22;42920;45.306;20.448;2022-11-20T06:06:49;205.40;2252.80
57030;DHT22;42920;45.306;20.448;2022-11-20T06:09:14;205.30;2252.80
57030;DHT22;42920;45.306;20.448;2022-11-20T06:11:40;205.30;2252.80
57030;DHT22;42920;45.306;20.448;2022-11-20T06:14:05;205.30;2252.80
57030;DHT22;42920;45.306;20.448;2022-11-20T06:16:31;205.30;2252.80
57030;DHT22;42920;45.306;20.448;2022-11-20T06:18:57;205.40;1920.00
57030;DHT22;42920;45.306;20.448;2022-11-20T06:21:22;205.40;2252.80
57030;DHT22;42920;45.306;20.448;2022-11-20T06:23:49;205.40;2252.80
57030;DHT22;42920;45.306;20.448;2022-11-20T06:26:18;205.30;2252.80
57030;DHT22;42920;45.306;20.448;2022-11-20T06:28:44;205.30;2252.80
57030;DHT22;42920;45.306;20.448;2022-11-20T06:31:11;205.30;1971.20
57030;DHT22;42920;45.306;20.448;2022-11-20T06:33:36;205.40;2252.80
57030;DHT22;42920;45.306;20.448;2022-11-20T06:36:02;205.30;2124.80
57030;DHT22;42920;45.306;20.448;2022-11-20T06:38:28;205.40;2252.80
57030;DHT22;42920;45.306;20.448;2022-11-20T06:40:54;205.40;1996.80
57030;DHT22;42920;45.306;20.448;2022-11-20T06:43:20;205.30;2252.80
57030;DHT22;42920;45.306;20.448;2022-11-20T06:45:45;205.40;1996.80
57030;DHT22;42920;45.306;20.448;2022-11-20T06:48:11;205.40;2252.80
57030;DHT22;42920;45.306;20.448;2022-11-20T06:50:37;205.40;2252.80
57030;DHT22;42920;45.306;20.448;2022-11-20T06:53:03;205.30;2252.80
57030;DHT22;42920;45.306;20.448;2022-11-20T06:55:29;205.40;2252.80
57030;DHT22;42920;45.306;20.448;2022-11-20T06:57:54;205.30;2252.80
57030;DHT22;42920;45.306;20.448;2022-11-20T07:00:20;205.40;1868.80
57030;DHT22;42920;45.306;20.448;2022-11-20T07:02:45;205.30;2252.80
57030;DHT22;42920;45.306;20.448;2022-11-20T07:05:11;205.40;2252.80
57030;DHT22;42920;45.306;20.448;2022-11-20T07:07:36;205.50;2252.80
57030;DHT22;42920;45.306;20.448;2022-11-20T07:10:02;205.40;2252.80
57030;DHT22;42920;45.306;20.448;2022-11-20T07:12:28;205.40;2252.80
57030;DHT22;42920;45.306;20.448;2022-11-20T07:14:53;205.00;2252.80
57030;DHT22;42920;45.306;20.448;2022-11-20T07:17:19;205.40;2252.80
57030;DHT22;42920;45.306;20.448;2022-11-20T07:19:44;205.40;2252.80
57030;DHT22;42920;45.306;20.448;2022-11-20T07:22:10;205.40;2252.80
57030;DHT22;42920;45.306;20.448;2022-11-20T07:24:35;205.50;2252.80
57030;DHT22;42920;45.306;20.448;2022-11-20T07:27:01;205.50;2252.80
57030;DHT22;42920;45.306;20.448;2022-11-20T07:29:27;205.40;2252.80
57030;DHT22;42920;45.306;20.448;2022-11-20T07:31:52;205.50;2252.80
57030;DHT22;42920;45.306;20.448;2022-11-20T07:34:18;205.50;2252.80
57030;DHT22;42920;45.306;20.448;2022-11-20T07:36:43;205.50;2252.80
57030;DHT22;42920;45.306;20.448;2022-11-20T07:39:09;205.60;2252.80
57030;DHT22;42920;45.306;20.448;2022-11-20T07:41:34;205.70;2252.80
57030;DHT22;42920;45.306;20.448;2022-11-20T07:44:00;205.60;2252.80
57030;DHT22;42920;45.306;20.448;2022-11-20T07:46:25;205.70;2252.80
57030;DHT22;42920;45.306;20.448;2022-11-20T07:48:51;205.70;2252.80
57030;DHT22;42920;45.306;20.448;2022-11-20T07:51:17;205.60;2252.80
57030;DHT22;42920;45.306;20.448;2022-11-20T07:53:42;205.60;2252.80
57030;DHT22;42920;45.306;20.448;2022-11-20T07:56:08;205.60;2252.80
57030;DHT22;42920;45.306;20.448;2022-11-20T07:58:33;205.60;2252.80
57030;DHT22;42920;45.306;20.448;2022-11-20T08:01:03;205.60;2252.80
57030;DHT22;42920;45.306;20.448;2022-11-20T08:03:29;205.60;2252.80
57030;DHT22;42920;45.306;20.448;2022-11-20T08:05:56;205.60;2252.80
57030;DHT22;42920;45.306;20.448;2022-11-20T08:08:23;205.60;2252.80
57030;DHT22;42920;45.306;20.448;2022-11-20T08:10:49;205.60;2252.80
57030;DHT22;42920;45.306;20.448;2022-11-20T08:13:14;205.70;2252.80
57030;DHT22;42920;45.306;20.448;2022-11-20T08:16:12;205.70;2252.80
57030;DHT22;42920;45.306;20.448;2022-11-20T08:18:37;205.70;2252.80
57030;DHT22;42920;45.306;20.448;2022-11-20T08:21:03;205.60;2252.80
57030;DHT22;42920;45.306;20.448;2022-11-20T08:23:29;205.60;2252.80
57030;DHT22;42920;45.306;20.448;2022-11-20T08:25:55;205.60;2252.80
57030;DHT22;42920;45.306;20.448;2022-11-20T08:28:21;205.60;2252.80
57030;DHT22;42920;45.306;20.448;2022-11-20T08:30:46;205.60;2252.80
57030;DHT22;42920;45.306;20.448;2022-11-20T08:33:12;205.70;2252.80
57030;DHT22;42920;45.306;20.448;2022-11-20T08:35:38;230.40;2252.80
57030;DHT22;42920;45.306;20.448;2022-11-20T08:38:04;205.70;2252.80
57030;DHT22;42920;45.306;20.448;2022-11-20T08:40:29;205.70;2252.80
57030;DHT22;42920;45.306;20.448;2022-11-20T08:42:55;205.60;2252.80
57030;DHT22;42920;45.306;20.448;2022-11-20T08:45:21;205.50;2252.80
57030;DHT22;42920;45.306;20.448;2022-11-20T08:47:46;205.50;2252.80
57030;DHT22;42920;45.306;20.448;2022-11-20T08:50:13;205.60;2252.80
57030;DHT22;42920;45.306;20.448;2022-11-20T08:52:39;205.60;2252.80
57030;DHT22;42920;45.306;20.448;2022-11-20T08:55:05;205.70;2252.80
57030;DHT22;42920;45.306;20.448;2022-11-20T08:57:31;205.70;2252.80
57030;DHT22;42920;45.306;20.448;2022-11-20T08:59:57;205.60;2252.80
57030;DHT22;42920;45.306;20.448;2022-11-20T09:02:22;205.70;2252.80
57030;DHT22;42920;45.306;20.448;2022-11-20T09:04:48;205.70;2252.80
57030;DHT22;42920;45.306;20.448;2022-11-20T09:07:13;205.70;2252.80
57030;DHT22;42920;45.306;20.448;2022-11-20T09:09:39;205.70;2252.80
57030;DHT22;42920;45.306;20.448;2022-11-20T09:12:05;205.60;2252.80
57030;DHT22;42920;45.306;20.448;2022-11-20T09:14:30;205.60;2252.80
57030;DHT22;42920;45.306;20.448;2022-11-20T09:16:56;205.60;2252.80
57030;DHT22;42920;45.306;20.448;2022-11-20T09:19:23;205.60;2252.80
57030;DHT22;42920;45.306;20.448;2022-11-20T09:21:48;205.70;2252.80
57030;DHT22;42920;45.306;20.448;2022-11-20T09:24:14;205.50;2252.80
57030;DHT22;42920;45.306;20.448;2022-11-20T09:26:39;205.70;2252.80
57030;DHT22;42920;45.306;20.448;2022-11-20T09:29:05;205.50;2252.80
57030;DHT22;42920;45.306;20.448;2022-11-20T09:31:31;205.60;2252.80
57030;DHT22;42920;45.306;20.448;2022-11-20T09:33:56;205.70;2252.80
57030;DHT22;42920;45.306;20.448;2022-11-20T09:36:22;205.60;2252.80
57030;DHT22;42920;45.306;20.448;2022-11-20T09:38:47;205.60;2252.80
57030;DHT22;42920;45.306;20.448;2022-11-20T09:41:35;205.70;2252.80
57030;DHT22;42920;45.306;20.448;2022-11-20T09:44:09;205.60;2252.80
57030;DHT22;42920;45.306;20.448;2022-11-20T09:49:28;205.70;2252.80
57030;DHT22;42920;45.306;20.448;2022-11-20T09:52:13;205.70;2252.80
57030;DHT22;42920;45.306;20.448;2022-11-20T09:54:45;230.40;2252.80
57030;DHT22;42920;45.306;20.448;2022-11-20T09:57:13;205.70;2252.80
57030;DHT22;42920;45.306;20.448;2022-11-20T10:00:00;205.60;2252.80
57030;DHT22;42920;45.306;20.448;2022-11-20T10:05:09;205.70;2252.80
57030;DHT22;42920;45.306;20.448;2022-11-20T10:13:14;205.70;2252.80
57030;DHT22;42920;45.306;20.448;2022-11-20T10:18:42;205.60;2252.80
57030;DHT22;42920;45.306;20.448;2022-11-20T10:29:28;205.40;2252.80
57030;DHT22;42920;45.306;20.448;2022-11-20T10:31:56;205.50;2252.80
57030;DHT22;42920;45.306;20.448;2022-11-20T10:34:45;205.70;2252.80
57030;DHT22;42920;45.306;20.448;2022-11-20T10:37:19;205.50;2252.80
57030;DHT22;42920;45.306;20.448;2022-11-20T10:42:31;205.50;2252.80
57030;DHT22;42920;45.306;20.448;2022-11-20T10:45:18;205.60;2252.80
57030;DHT22;42920;45.306;20.448;2022-11-20T10:47:47;205.60;2252.80
57030;DHT22;42920;45.306;20.448;2022-11-20T10:50:14;205.60;2252.80
57030;DHT22;42920;45.306;20.448;2022-11-20T10:55:28;205.60;2252.80
57030;DHT22;42920;45.306;20.448;2022-11-20T10:58:04;205.60;2252.80
57030;DHT22;42920;45.306;20.448;2022-11-20T11:00:34;205.50;2252.80
57030;DHT22;42920;45.306;20.448;2022-11-20T11:02:59;205.60;2252.80
57030;DHT22;42920;45.306;20.448;2022-11-20T11:05:39;205.60;2252.80
57030;DHT22;42920;45.306;20.448;2022-11-20T11:08:10;205.70;2252.80
57030;DHT22;42920;45.306;20.448;2022-11-20T11:10:46;205.70;2252.80
57030;DHT22;42920;45.306;20.448;2022-11-20T11:13:23;230.50;2252.80
57030;DHT22;42920;45.306;20.448;2022-11-20T11:15:49;205.70;2252.80
57030;DHT22;42920;45.306;20.448;2022-11-20T11:20:53;230.50;2252.80
57030;DHT22;42920;45.306;20.448;2022-11-20T11:23:26;205.70;2252.80
57030;DHT22;42920;45.306;20.448;2022-11-20T11:25:58;230.40;2252.80
57030;DHT22;42920;45.306;20.448;2022-11-20T11:28:24;205.70;2252.80
57030;DHT22;42920;45.306;20.448;2022-11-20T11:30:51;205.60;2252.80
57030;DHT22;42920;45.306;20.448;2022-11-20T11:33:24;205.70;2252.80
57030;DHT22;42920;45.306;20.448;2022-11-20T11:35:50;205.60;2252.80
57030;DHT22;42920;45.306;20.448;2022-11-20T11:38:27;205.60;2252.80
57030;DHT22;42920;45.306;20.448;2022-11-20T11:40:53;205.60;2252.80
57030;DHT22;42920;45.306;20.448;2022-11-20T11:43:22;205.60;2252.80
57030;DHT22;42920;45.306;20.448;2022-11-20T11:51:37;205.50;2252.80
57030;DHT22;42920;45.306;20.448;2022-11-20T11:54:08;205.50;2252.80
57030;DHT22;42920;45.306;20.448;2022-11-20T11:56:39;205.40;2252.80
57030;DHT22;42920;45.306;20.448;2022-11-20T11:59:05;205.40;2252.80
57030;DHT22;42920;45.306;20.448;2022-11-20T12:06:53;205.20;2252.80
57030;DHT22;42920;45.306;20.448;2022-11-20T12:09:23;205.20;2252.80
57030;DHT22;42920;45.306;20.448;2022-11-20T12:11:51;205.20;2252.80
57030;DHT22;42920;45.306;20.448;2022-11-20T12:14:27;205.30;2252.80
57030;DHT22;42920;45.306;20.448;2022-11-20T12:16:55;205.20;2252.80
57030;DHT22;42920;45.306;20.448;2022-11-20T12:19:22;205.20;2252.80
57030;DHT22;42920;45.306;20.448;2022-11-20T12:27:23;205.30;2252.80
57030;DHT22;42920;45.306;20.448;2022-11-20T12:35:00;205.40;2252.80
57030;DHT22;42920;45.306;20.448;2022-11-20T12:37:53;205.40;2252.80
57030;DHT22;42920;45.306;20.448;2022-11-20T12:40:27;205.30;2252.80
57030;DHT22;42920;45.306;20.448;2022-11-20T12:43:11;205.30;2252.80
57030;DHT22;42920;45.306;20.448;2022-11-20T12:56:43;205.50;2252.80
57030;DHT22;42920;45.306;20.448;2022-11-20T13:06:46;205.60;2252.80
57030;DHT22;42920;45.306;20.448;2022-11-20T13:09:12;205.50;2252.80
57030;DHT22;42920;45.306;20.448;2022-11-20T13:16:45;205.70;2252.80
57030;DHT22;42920;45.306;20.448;2022-11-20T13:19:13;205.60;2252.80
57030;DHT22;42920;45.306;20.448;2022-11-20T13:21:40;205.70;2252.80
57030;DHT22;42920;45.306;20.448;2022-11-20T13:24:06;205.60;2252.80
57030;DHT22;42920;45.306;20.448;2022-11-20T13:26:32;205.60;2252.80
57030;DHT22;42920;45.306;20.448;2022-11-20T13:29:02;205.70;2252.80
57030;DHT22;42920;45.306;20.448;2022-11-20T13:31:34;205.60;2252.80
57030;DHT22;42920;45.306;20.448;2022-11-20T13:34:02;205.60;2252.80
57030;DHT22;42920;45.306;20.448;2022-11-20T13:36:28;205.60;2252.80
57030;DHT22;42920;45.306;20.448;2022-11-20T13:38:55;205.70;2252.80
57030;DHT22;42920;45.306;20.448;2022-11-20T13:41:25;205.70;2252.80
57030;DHT22;42920;45.306;20.448;2022-11-20T13:44:04;205.70;2252.80
57030;DHT22;42920;45.306;20.448;2022-11-20T13:49:06;205.70;2252.80
57030;DHT22;42920;45.306;20.448;2022-11-20T13:51:51;205.70;2252.80
57030;DHT22;42920;45.306;20.448;2022-11-20T13:59:33;205.70;2252.80
57030;DHT22;42920;45.306;20.448;2022-11-20T14:02:02;205.70;2252.80
57030;DHT22;42920;45.306;20.448;2022-11-20T14:04:34;205.70;2252.80
57030;DHT22;42920;45.306;20.448;2022-11-20T14:07:01;230.40;2252.80
57030;DHT22;42920;45.306;20.448;2022-11-20T14:09:31;205.70;2252.80
57030;DHT22;42920;45.306;20.448;2022-11-20T14:11:56;205.70;2252.80
57030;DHT22;42920;45.306;20.448;2022-11-20T14:14:26;205.70;2252.80
57030;DHT22;42920;45.306;20.448;2022-11-20T14:16:53;205.70;2252.80
57030;DHT22;42920;45.306;20.448;2022-11-20T14:19:29;205.70;2252.80
57030;DHT22;42920;45.306;20.448;2022-11-20T14:22:09;230.70;2252.80
57030;DHT22;42920;45.306;20.448;2022-11-20T14:24:34;230.40;2252.80
57030;DHT22;42920;45.306;20.448;2022-11-20T14:27:00;205.70;2252.80
57030;DHT22;42920;45.306;20.448;2022-11-20T14:29:29;230.40;2252.80
57030;DHT22;42920;45.306;20.448;2022-11-20T14:31:58;230.40;2252.80
57030;DHT22;42920;45.306;20.448;2022-11-20T14:34:24;230.40;2252.80
57030;DHT22;42920;45.306;20.448;2022-11-20T14:36:52;205.70;2252.80
57030;DHT22;42920;45.306;20.448;2022-11-20T14:39:21;205.70;2252.80
57030;DHT22;42920;45.306;20.448;2022-11-20T14:41:51;230.40;2252.80
57030;DHT22;42920;45.306;20.448;2022-11-20T14:44:17;205.70;2252.80
57030;DHT22;42920;45.306;20.448;2022-11-20T14:46:45;205.70;2252.80
57030;DHT22;42920;45.306;20.448;2022-11-20T14:49:10;205.70;2252.80
57030;DHT22;42920;45.306;20.448;2022-11-20T14:51:38;205.70;2252.80
57030;DHT22;42920;45.306;20.448;2022-11-20T14:54:16;230.40;2252.80
57030;DHT22;42920;45.306;20.448;2022-11-20T14:57:04;230.50;2252.80
57030;DHT22;42920;45.306;20.448;2022-11-20T14:59:32;230.50;2252.80
57030;DHT22;42920;45.306;20.448;2022-11-20T15:02:09;230.50;2252.80
57030;DHT22;42920;45.306;20.448;2022-11-20T15:04:50;230.50;2252.80
57030;DHT22;42920;45.306;20.448;2022-11-20T15:12:49;230.40;2252.80
57030;DHT22;42920;45.306;20.448;2022-11-20T15:15:17;230.40;2252.80
57030;DHT22;42920;45.306;20.448;2022-11-20T15:17:44;230.40;2252.80
57030;DHT22;42920;45.306;20.448;2022-11-20T15:20:11;230.50;2252.80
57030;DHT22;42920;45.306;20.448;2022-11-20T15:22:38;230.40;2252.80
57030;DHT22;42920;45.306;20.448;2022-11-20T15:25:16;230.40;2252.80
57030;DHT22;42920;45.306;20.448;2022-11-20T15:27:43;230.40;2252.80
57030;DHT22;42920;45.306;20.448;2022-11-20T15:30:12;230.40;2252.80
57030;DHT22;42920;45.306;20.448;2022-11-20T15:32:39;230.40;2252.80
57030;DHT22;42920;45.306;20.448;2022-11-20T15:35:05;230.50;2252.80
57030;DHT22;42920;45.306;20.448;2022-11-20T15:37:30;230.50;2252.80
57030;DHT22;42920;45.306;20.448;2022-11-20T15:39:56;230.40;2252.80
57030;DHT22;42920;45.306;20.448;2022-11-20T15:42:23;230.50;2252.80
57030;DHT22;42920;45.306;20.448;2022-11-20T15:44:48;230.60;2252.80
57030;DHT22;42920;45.306;20.448;2022-11-20T15:47:14;230.50;2252.80
57030;DHT22;42920;45.306;20.448;2022-11-20T15:49:39;230.60;2252.80
57030;DHT22;42920;45.306;20.448;2022-11-20T15:52:05;230.50;2252.80
57030;DHT22;42920;45.306;20.448;2022-11-20T15:54:30;230.50;2252.80
57030;DHT22;42920;45.306;20.448;2022-11-20T15:56:57;230.40;2252.80
57030;DHT22;42920;45.306;20.448;2022-11-20T15:59:23;230.40;2252.80
57030;DHT22;42920;45.306;20.448;2022-11-20T16:01:49;230.40;2252.80
57030;DHT22;42920;45.306;20.448;2022-11-20T16:04:15;230.50;2252.80
57030;DHT22;42920;45.306;20.448;2022-11-20T16:06:41;230.50;2252.80
57030;DHT22;42920;45.306;20.448;2022-11-20T16:09:07;230.50;2252.80
57030;DHT22;42920;45.306;20.448;2022-11-20T16:11:33;230.60;2252.80
57030;DHT22;42920;45.306;20.448;2022-11-20T16:14:02;230.60;2252.80
57030;DHT22;42920;45.306;20.448;2022-11-20T16:16:46;230.60;2252.80